Hagshult Airport


Codes: ESMV/
Name: Hagshult Airport
City:
Country: Sweden
Elevation: 556 ft.
Website:

Photos at Hagshult Airport


   Photos courtesy of SpottingLog. You can add your own sightings and photos by signing up for a free trial today.



No photos found.

Weather at Hagshult Airport


Time (UTC)DescriptionTempratureWindCloud coverageVisibilityPressureHumidity
15-Apr-2024 15:00Overcast Clouds9°C4 mph, SW100%10000m1001hPa41%
15-Apr-2024 18:00Overcast Clouds8°C2 mph, E100%10000m1000hPa47%
15-Apr-2024 21:00Overcast Clouds6°C4 mph, E100%10000m999hPa58%
16-Apr-2024 00:00Overcast Clouds4°C4 mph, E100%10000m997hPa78%
16-Apr-2024 03:00Overcast Clouds2°C4 mph, NE98%10000m996hPa84%
16-Apr-2024 06:00Overcast Clouds4°C9 mph, NE87%10000m997hPa68%
16-Apr-2024 09:00Overcast Clouds8°C9 mph, NE97%10000m998hPa47%
16-Apr-2024 12:00Light Rain8°C11 mph, N99%10000m999hPa50%
16-Apr-2024 15:00Light Rain7°C11 mph, N99%10000m1000hPa47%
16-Apr-2024 18:00Overcast Clouds4°C9 mph, NE99%10000m1002hPa66%
16-Apr-2024 21:00Overcast Clouds2°C7 mph, N100%10000m1004hPa79%
17-Apr-2024 00:00Overcast Clouds0°C4 mph, N87%10000m1006hPa85%
17-Apr-2024 03:00Scattered Clouds-1°C4 mph, N25%10000m1007hPa94%
17-Apr-2024 06:00Broken Clouds3°C9 mph, N52%10000m1008hPa72%
17-Apr-2024 09:00Scattered Clouds7°C9 mph, N33%10000m1008hPa45%
17-Apr-2024 12:00Broken Clouds9°C7 mph, N53%10000m1008hPa36%
17-Apr-2024 15:00Overcast Clouds9°C9 mph, N100%10000m1009hPa36%
17-Apr-2024 18:00Overcast Clouds4°C4 mph, N87%10000m1011hPa55%
17-Apr-2024 21:00Broken Clouds1°C4 mph, NE62%10000m1012hPa70%
18-Apr-2024 00:00Scattered Clouds-1°C2 mph, NE46%10000m1013hPa91%
18-Apr-2024 03:00Clear Sky-1°C2 mph, NE9%10000m1014hPa95%
18-Apr-2024 06:00Clear Sky2°C4 mph, NE10%10000m1016hPa79%
18-Apr-2024 09:00Light Snow3°C7 mph, NE85%10000m1017hPa68%
18-Apr-2024 12:00Overcast Clouds5°C7 mph, NE91%10000m1017hPa47%
18-Apr-2024 15:00Broken Clouds6°C9 mph, N80%10000m1016hPa37%
18-Apr-2024 18:00Scattered Clouds2°C2 mph, NE47%10000m1016hPa55%
18-Apr-2024 21:00Clear Sky-1°C2 mph, SE2%10000m1016hPa69%
19-Apr-2024 00:00Clear Sky-2°C2 mph, S4%10000m1015hPa90%
19-Apr-2024 03:00Scattered Clouds-2°C4 mph, SE37%10000m1013hPa98%
19-Apr-2024 06:00Broken Clouds1°C4 mph, SE68%10000m1011hPa75%
19-Apr-2024 09:00Overcast Clouds6°C7 mph, SE93%10000m1009hPa42%
19-Apr-2024 12:00Overcast Clouds8°C4 mph, SE97%10000m1007hPa35%
19-Apr-2024 15:00Overcast Clouds8°C2 mph, SE100%10000m1006hPa38%
19-Apr-2024 18:00Light Snow3°C0 mph, SE99%10000m1007hPa63%
19-Apr-2024 21:00Overcast Clouds1°C2 mph, N89%10000m1009hPa77%
20-Apr-2024 00:00Broken Clouds-1°C2 mph, NW72%10000m1010hPa83%
20-Apr-2024 03:00Scattered Clouds-2°C2 mph, W49%10000m1011hPa80%
20-Apr-2024 06:00Broken Clouds3°C4 mph, SW66%10000m1012hPa77%
20-Apr-2024 09:00Light Rain7°C7 mph, SW93%5870m1012hPa61%
20-Apr-2024 12:00Light Rain6°C7 mph, SW97%5383m1013hPa78%